Hayase Maru — JD2583 — position and weather

sailwx.info

Track history (hours):
 
Tides and Currents Weather Stations Pressure Air Temp Water Temp Dewpoint Dewpoint Depression Visibility Wind Speed Wind Dir Waves Ship Positions

Hayase Maru

Last reported at 2016-Sep-13 22:33 UTC. Time now 2016-Sep-25 10:38 UTC.
Position N 35°14' E 139°47'.
Warning: this ship's position is 11 days out of date.

Length 73 m; draft 4 m.

Type: Ship. MMSI: 431000395.

Date/timePositionNaut miles runAvg speedWind from/ knotsBaromVisibWave heightAir tempDewpointWater temp
2016-Sep-13 22:33N 35°14' E 139°47'16 8.0
2016-Sep-13 20:33N 35°30' E 139°50'0 0.0
2016-Sep-13 18:33N 35°30' E 139°50'0 0.0
2016-Sep-13 17:33N 35°30' E 139°50'0 0.0
2016-Sep-13 16:33N 35°30' E 139°50'0 0.0
2016-Sep-13 11:33N 35°30' E 139°50'0 0.0
2016-Sep-13 09:30N 35°30' E 139°50'0 0.0
2016-Sep-13 07:33N 35°30' E 139°50'0 0.0
2016-Sep-13 06:33N 35°30' E 139°50'0 0.0
2016-Sep-13 04:33N 35°30' E 139°50'15 7.3
2016-Sep-13 02:33N 35°36' E 140°06'0 0.0
2016-Sep-12 23:33N 35°36' E 140°06'2 1.1
2016-Sep-12 21:33N 35°35' E 140°04'0 0.0
2016-Sep-12 19:33N 35°35' E 140°04'9 4.3
2016-Sep-12 17:34N 35°31' E 139°55'29 9.5
2016-Sep-12 14:30N 35°03' E 139°43'238 8.8
2016-Sep-11 11:17N 34°17' E 134°58'710.1
2016-Sep-11 10:33N 34°24' E 135°01'16 7.6
2016-Sep-11 08:27N 34°38' E 134°51'4 0.1
2016-Sep-09 10:04N 34°40' E 134°48'6 9.9
2016-Sep-09 09:29N 34°38' E 134°54'9 9.9
2016-Sep-09 08:33N 34°35' E 135°05'1110.9
2016-Sep-09 07:32N 34°25' E 135°03'1111.5
2016-Sep-09 06:33N 34°13' E 134°60'  
2016-Sep-06 12:31N 35°00' E 139°29'20 9.7
2016-Sep-06 10:26N 35°14' E 139°47'910.0
2016-Sep-06 09:33N 35°22' E 139°42'9 8.7
2016-Sep-06 08:33N 35°30' E 139°46'1 1.2
2016-Sep-06 07:33N 35°31' E 139°45'0 0.0
2016-Sep-06 06:34N 35°31' E 139°45'0 0.0
2016-Sep-06 04:33N 35°31' E 139°45'0 0.0
2016-Sep-06 03:34N 35°31' E 139°45'0 0.0
2016-Sep-06 02:34N 35°31' E 139°45'0 0.0
2016-Sep-06 01:34N 35°31' E 139°45'0 0.0
2016-Sep-06 00:34N 35°31' E 139°45'0 0.0
2016-Sep-05 23:34N 35°31' E 139°45'0 0.0
2016-Sep-05 22:34N 35°31' E 139°45'3 3.2
2016-Sep-05 21:34N 35°30' E 139°48'0 0.2
2016-Sep-05 20:33N 35°30' E 139°49'0 0.0
2016-Sep-05 19:33N 35°30' E 139°49'0 0.0
2016-Sep-05 18:33N 35°30' E 139°49'0 0.0
2016-Sep-05 17:33N 35°30' E 139°49'0 0.0
2016-Sep-05 16:33N 35°30' E 139°49'0 0.0
2016-Sep-05 15:33N 35°30' E 139°49'0 0.0
2016-Sep-05 14:33N 35°30' E 139°49'0 0.0
2016-Sep-05 13:33N 35°30' E 139°49'0 0.0
2016-Sep-05 12:33N 35°30' E 139°49'0 0.0
2016-Sep-05 11:33N 35°30' E 139°49'0 0.0
2016-Sep-05 10:30N 35°30' E 139°49'0 0.0
2016-Sep-05 09:30N 35°30' E 139°49'0 0.1
2016-Sep-05 08:33N 35°30' E 139°49'0 0.1
2016-Sep-05 07:33N 35°30' E 139°49'0 0.0
2016-Sep-05 06:33N 35°30' E 139°49'0 0.0
2016-Sep-05 04:33N 35°30' E 139°49'0 0.1
2016-Sep-05 03:33N 35°30' E 139°49'0 0.1
2016-Sep-05 02:33N 35°29' E 139°49'0 0.0
2016-Sep-05 01:33N 35°29' E 139°49'0 0.0
2016-Sep-05 00:33N 35°29' E 139°49'0 0.0
2016-Sep-04 23:33N 35°30' E 139°49'0 0.1
2016-Sep-04 22:33N 35°30' E 139°49'4 3.9
2016-Sep-04 21:33N 35°26' E 139°48'5 4.8
2016-Sep-04 20:33N 35°22' E 139°51'0 0.0
2016-Sep-04 19:33N 35°22' E 139°51'0 0.0
2016-Sep-04 18:33N 35°22' E 139°51'0 0.0
2016-Sep-04 17:33N 35°22' E 139°51'3 3.4
2016-Sep-04 16:33N 35°22' E 139°47'9 8.7
2016-Sep-04 15:33N 35°14' E 139°47'  
Track history (hours):
 
Tides and Currents Weather Stations Pressure Air Temp Water Temp Dewpoint Dewpoint Depression Visibility Wind Speed Wind Dir Waves Ship Positions

Hayase Maru

Last reported at 2016-Sep-13 22:33 UTC. Time now 2016-Sep-25 10:38 UTC.
Position N 35°14' E 139°47'.
Warning: this ship's position is 11 days out of date.

Length 73 m; draft 4 m.

Type: Ship. MMSI: 431000395.

Date/timePositionNaut miles runAvg speedWind from/ knotsBaromVisibWave heightAir tempDewpointWater temp
2016-Sep-13 22:33N 35°14' E 139°47'16 8.0
2016-Sep-13 20:33N 35°30' E 139°50'0 0.0
2016-Sep-13 18:33N 35°30' E 139°50'0 0.0
2016-Sep-13 17:33N 35°30' E 139°50'0 0.0
2016-Sep-13 16:33N 35°30' E 139°50'0 0.0
2016-Sep-13 11:33N 35°30' E 139°50'0 0.0
2016-Sep-13 09:30N 35°30' E 139°50'0 0.0
2016-Sep-13 07:33N 35°30' E 139°50'0 0.0
2016-Sep-13 06:33N 35°30' E 139°50'0 0.0
2016-Sep-13 04:33N 35°30' E 139°50'15 7.3
2016-Sep-13 02:33N 35°36' E 140°06'0 0.0
2016-Sep-12 23:33N 35°36' E 140°06'2 1.1
2016-Sep-12 21:33N 35°35' E 140°04'0 0.0
2016-Sep-12 19:33N 35°35' E 140°04'9 4.3
2016-Sep-12 17:34N 35°31' E 139°55'29 9.5
2016-Sep-12 14:30N 35°03' E 139°43'238 8.8
2016-Sep-11 11:17N 34°17' E 134°58'710.1
2016-Sep-11 10:33N 34°24' E 135°01'16 7.6
2016-Sep-11 08:27N 34°38' E 134°51'4 0.1
2016-Sep-09 10:04N 34°40' E 134°48'6 9.9
2016-Sep-09 09:29N 34°38' E 134°54'9 9.9
2016-Sep-09 08:33N 34°35' E 135°05'1110.9
2016-Sep-09 07:32N 34°25' E 135°03'1111.5
2016-Sep-09 06:33N 34°13' E 134°60'  
2016-Sep-06 12:31N 35°00' E 139°29'20 9.7
2016-Sep-06 10:26N 35°14' E 139°47'910.0
2016-Sep-06 09:33N 35°22' E 139°42'9 8.7
2016-Sep-06 08:33N 35°30' E 139°46'1 1.2
2016-Sep-06 07:33N 35°31' E 139°45'0 0.0
2016-Sep-06 06:34N 35°31' E 139°45'0 0.0
2016-Sep-06 04:33N 35°31' E 139°45'0 0.0
2016-Sep-06 03:34N 35°31' E 139°45'0 0.0
2016-Sep-06 02:34N 35°31' E 139°45'0 0.0
2016-Sep-06 01:34N 35°31' E 139°45'0 0.0
2016-Sep-06 00:34N 35°31' E 139°45'0 0.0
2016-Sep-05 23:34N 35°31' E 139°45'0 0.0
2016-Sep-05 22:34N 35°31' E 139°45'3 3.2
2016-Sep-05 21:34N 35°30' E 139°48'0 0.2
2016-Sep-05 20:33N 35°30' E 139°49'0 0.0
2016-Sep-05 19:33N 35°30' E 139°49'0 0.0
2016-Sep-05 18:33N 35°30' E 139°49'0 0.0
2016-Sep-05 17:33N 35°30' E 139°49'0 0.0
2016-Sep-05 16:33N 35°30' E 139°49'0 0.0
2016-Sep-05 15:33N 35°30' E 139°49'0 0.0
2016-Sep-05 14:33N 35°30' E 139°49'0 0.0
2016-Sep-05 13:33N 35°30' E 139°49'0 0.0
2016-Sep-05 12:33N 35°30' E 139°49'0 0.0
2016-Sep-05 11:33N 35°30' E 139°49'0 0.0
2016-Sep-05 10:30N 35°30' E 139°49'0 0.0
2016-Sep-05 09:30N 35°30' E 139°49'0 0.1
2016-Sep-05 08:33N 35°30' E 139°49'0 0.1
2016-Sep-05 07:33N 35°30' E 139°49'0 0.0
2016-Sep-05 06:33N 35°30' E 139°49'0 0.0
2016-Sep-05 04:33N 35°30' E 139°49'0 0.1
2016-Sep-05 03:33N 35°30' E 139°49'0 0.1
2016-Sep-05 02:33N 35°29' E 139°49'0 0.0
2016-Sep-05 01:33N 35°29' E 139°49'0 0.0
2016-Sep-05 00:33N 35°29' E 139°49'0 0.0
2016-Sep-04 23:33N 35°30' E 139°49'0 0.1
2016-Sep-04 22:33N 35°30' E 139°49'4 3.9
2016-Sep-04 21:33N 35°26' E 139°48'5 4.8
2016-Sep-04 20:33N 35°22' E 139°51'0 0.0
2016-Sep-04 19:33N 35°22' E 139°51'0 0.0
2016-Sep-04 18:33N 35°22' E 139°51'0 0.0
2016-Sep-04 17:33N 35°22' E 139°51'3 3.4
2016-Sep-04 16:33N 35°22' E 139°47'9 8.7
2016-Sep-04 15:33N 35°14' E 139°47'  

Dump ship's entire track history